createdAt,value
2019-06-10T00:00:25.630Z,5.93
2019-06-10T00:03:31.739Z,6.53
2019-06-10T00:06:37.090Z,5.60
2019-06-10T00:09:42.779Z,5.37
2019-06-10T00:12:47.880Z,5.80
2019-06-10T00:15:52.982Z,6.10
2019-06-10T00:18:58.030Z,5.83
2019-06-10T00:22:04.097Z,5.30
2019-06-10T00:25:11.826Z,5.83
2019-06-10T00:28:16.604Z,5.47
2019-06-10T00:31:21.559Z,5.20
2019-06-10T00:34:26.667Z,5.80
2019-06-10T00:37:31.647Z,5.50
2019-06-10T00:40:36.814Z,5.53
2019-06-10T00:43:41.768Z,5.53
2019-06-10T00:46:46.799Z,6.07
2019-06-10T00:49:51.818Z,5.97
2019-06-10T00:52:56.771Z,5.17
2019-06-10T00:56:06.509Z,6.33
2019-06-10T00:59:14.829Z,6.03
2019-06-10T01:02:21.192Z,6.17
2019-06-10T01:05:27.779Z,5.90
2019-06-10T01:08:35.637Z,5.13
2019-06-10T01:11:41.124Z,5.40
2019-06-10T01:14:46.297Z,5.30
2019-06-10T01:17:51.409Z,5.23
2019-06-10T01:20:56.426Z,5.90
2019-06-10T01:24:05.036Z,5.93
2019-06-10T01:27:12.368Z,5.23
2019-06-10T01:30:23.622Z,6.00
2019-06-10T01:33:28.778Z,5.70
2019-06-10T01:36:33.747Z,5.37
2019-06-10T01:39:41.234Z,5.60
2019-06-10T01:42:46.435Z,5.30
2019-06-10T01:45:51.470Z,7.10
2019-06-10T01:48:56.397Z,7.90
2019-06-10T01:52:01.785Z,5.80
2019-06-10T01:55:07.565Z,7.37
2019-06-10T01:58:15.873Z,6.63
2019-06-10T02:01:41.181Z,6.47
2019-06-10T02:04:45.282Z,7.73
2019-06-10T02:07:51.626Z,6.70
2019-06-10T02:10:57.465Z,6.43
2019-06-10T02:14:02.770Z,6.20
2019-06-10T02:17:13.062Z,6.30
2019-06-10T02:20:18.461Z,6.37
2019-06-10T02:23:24.489Z,6.60
2019-06-10T02:26:30.903Z,5.87
2019-06-10T02:29:36.130Z,6.40
2019-06-10T02:32:42.807Z,6.03
2019-06-10T02:35:49.154Z,6.50
2019-06-10T02:38:54.559Z,6.43
2019-06-10T02:42:04.878Z,6.27
2019-06-10T02:45:13.794Z,6.83
2019-06-10T02:48:20.124Z,5.77
2019-06-10T02:51:30.242Z,6.70
2019-06-10T02:54:32.691Z,6.07
2019-06-10T02:57:40.421Z,6.00
2019-06-10T03:00:48.533Z,6.00
2019-06-10T03:03:53.961Z,6.40
2019-06-10T03:06:57.209Z,6.30
2019-06-10T03:10:04.600Z,6.70
2019-06-10T03:13:09.058Z,6.03
2019-06-10T03:16:36.179Z,6.43
2019-06-10T03:19:47.841Z,6.70
2019-06-10T03:22:47.748Z,6.40
2019-06-10T03:26:00.016Z,6.63
2019-06-10T03:29:05.046Z,7.07
2019-06-10T03:32:10.004Z,7.13
2019-06-10T03:35:15.120Z,7.00
2019-06-10T03:38:20.881Z,6.67
2019-06-10T03:41:28.026Z,6.70
2019-06-10T03:44:33.157Z,6.70
2019-06-10T03:47:38.194Z,6.40
2019-06-10T03:50:43.251Z,7.67
2019-06-10T03:53:48.318Z,6.73
2019-06-10T03:56:53.393Z,6.93
2019-06-10T03:59:58.428Z,8.57
2019-06-10T04:03:03.515Z,8.83
2019-06-10T04:06:08.529Z,7.87
2019-06-10T04:09:13.560Z,7.93
2019-06-10T04:12:19.495Z,7.90
2019-06-10T04:15:27.368Z,7.90
2019-06-10T04:18:32.807Z,7.47
2019-06-10T04:21:37.978Z,8.40
2019-06-10T04:24:43.204Z,6.70
2019-06-10T04:27:48.206Z,7.93
2019-06-10T04:30:53.667Z,6.83
2019-06-10T04:33:58.689Z,7.83
2019-06-10T04:37:03.738Z,7.37
2019-06-10T04:40:08.882Z,6.53
2019-06-10T04:43:13.826Z,7.60
2019-06-10T04:46:19.103Z,7.43
2019-06-10T04:49:26.682Z,7.40
2019-06-10T04:52:32.879Z,7.63
2019-06-10T04:55:37.941Z,7.00
2019-06-10T04:58:43.472Z,8.33
2019-06-10T05:01:49.015Z,7.80
2019-06-10T05:04:53.970Z,7.43
2019-06-10T05:07:59.026Z,8.10
2019-06-10T05:11:04.785Z,8.67
2019-06-10T05:14:09.725Z,7.43
2019-06-10T05:17:14.846Z,6.80
2019-06-10T05:20:22.291Z,7.30
2019-06-10T05:23:27.921Z,7.47
2019-06-10T05:26:33.794Z,7.60
2019-06-10T05:29:39.334Z,7.40
2019-06-10T05:32:44.602Z,7.53
2019-06-10T05:35:49.925Z,7.73
2019-06-10T05:38:55.260Z,7.67
2019-06-10T05:42:03.158Z,7.63
2019-06-10T05:45:08.482Z,7.93
2019-06-10T05:48:16.591Z,8.90
2019-06-10T05:51:22.646Z,7.90
2019-06-10T05:54:27.588Z,8.40
2019-06-10T05:57:35.170Z,8.13
2019-06-10T06:00:39.434Z,7.60
2019-06-10T06:03:44.585Z,7.23
2019-06-10T06:06:49.643Z,7.63
2019-06-10T06:09:54.598Z,6.67
2019-06-10T06:12:59.614Z,6.60
2019-06-10T06:16:04.717Z,7.50
2019-06-10T06:19:09.745Z,6.80
2019-06-10T06:22:14.731Z,8.80
2019-06-10T06:25:23.874Z,8.30
2019-06-10T06:28:27.956Z,8.00
2019-06-10T06:31:34.919Z,8.83
2019-06-10T06:34:39.748Z,7.53
2019-06-10T06:37:44.877Z,7.67
2019-06-10T06:40:53.550Z,7.67
2019-06-10T06:43:56.764Z,8.17
2019-06-10T06:47:02.704Z,8.53
2019-06-10T06:50:08.456Z,7.00
2019-06-10T06:53:25.703Z,6.43
2019-06-10T06:56:22.869Z,6.40
2019-06-10T06:59:26.939Z,6.73
2019-06-10T07:02:34.207Z,7.23
2019-06-10T07:05:41.074Z,6.20
2019-06-10T07:09:00.566Z,6.37
2019-06-10T07:11:53.907Z,5.50
2019-06-10T07:15:01.322Z,5.53
2019-06-10T07:18:06.273Z,5.70
2019-06-10T07:21:13.231Z,4.70
2019-06-10T07:24:17.967Z,4.20
2019-06-10T07:27:22.987Z,4.63
2019-06-10T07:30:27.961Z,4.53
2019-06-10T07:33:35.812Z,5.00
2019-06-10T07:36:40.878Z,6.50
2019-06-10T07:39:46.522Z,5.67
2019-06-10T07:42:53.077Z,5.80
2019-06-10T07:45:58.231Z,5.93
2019-06-10T07:49:04.029Z,6.40
2019-06-10T07:52:15.731Z,5.40
2019-06-10T07:55:15.763Z,5.50
2019-06-10T07:58:22.430Z,5.27
2019-06-10T08:01:27.590Z,4.83
2019-06-10T08:04:33.600Z,5.30
2019-06-10T08:07:39.277Z,5.33
2019-06-10T08:10:46.036Z,4.50
2019-06-10T08:13:53.525Z,5.13
2019-06-10T08:16:57.749Z,5.17
2019-06-10T08:20:02.859Z,5.20
2019-06-10T08:23:07.915Z,5.20
2019-06-10T08:26:12.997Z,5.20
2019-06-10T08:29:18.018Z,5.17
2019-06-10T08:32:24.473Z,5.73
2019-06-10T08:35:39.432Z,5.27
2019-06-10T08:38:36.484Z,6.10
2019-06-10T08:41:45.588Z,4.60
2019-06-10T08:44:48.674Z,4.63
2019-06-10T08:47:54.235Z,5.23
2019-06-10T08:50:59.486Z,3.90
2019-06-10T08:54:04.855Z,4.70
2019-06-10T08:57:12.467Z,4.80
2019-06-10T09:00:18.751Z,5.73
2019-06-10T09:03:23.603Z,5.00
2019-06-10T09:06:28.800Z,4.60
2019-06-10T09:09:33.974Z,5.27
2019-06-10T09:12:40.039Z,4.93
2019-06-10T09:16:03.634Z,5.20
2019-06-10T09:18:55.315Z,5.30
2019-06-10T09:22:00.026Z,5.67
2019-06-10T09:25:05.679Z,5.60
2019-06-10T09:28:12.841Z,4.60
2019-06-10T09:31:17.655Z,5.10
2019-06-10T09:34:25.332Z,5.23
2019-06-10T09:37:32.031Z,6.17
2019-06-10T09:41:01.974Z,5.23
2019-06-10T09:44:05.280Z,6.20
2019-06-10T09:47:10.483Z,4.67
2019-06-10T09:50:33.367Z,5.50
2019-06-10T09:53:46.509Z,5.70
2019-06-10T09:56:48.434Z,5.97
2019-06-10T09:59:56.387Z,5.30
2019-06-10T10:03:03.370Z,4.93
2019-06-10T10:06:13.996Z,5.60
2019-06-10T10:09:13.754Z,5.23
2019-06-10T10:12:22.694Z,5.87
2019-06-10T10:15:30.749Z,5.13
2019-06-10T10:18:34.067Z,4.20
2019-06-10T10:21:41.327Z,4.43
2019-06-10T10:24:47.484Z,4.90
2019-06-10T10:27:57.268Z,4.87
2019-06-10T10:30:59.456Z,7.70
2019-06-10T10:34:06.504Z,4.00
2019-06-10T10:37:12.357Z,3.63
2019-06-10T10:40:19.731Z,3.80
2019-06-10T10:43:32.983Z,3.57
2019-06-10T10:46:37.129Z,3.80
2019-06-10T10:50:03.226Z,4.37
2019-06-10T10:53:12.866Z,4.70
2019-06-10T10:56:17.544Z,4.30
2019-06-10T10:59:22.534Z,5.00
2019-06-10T11:02:27.576Z,4.17
2019-06-10T11:05:34.714Z,7.97
2019-06-10T11:08:39.765Z,5.10
2019-06-10T11:11:46.049Z,3.67
2019-06-10T11:14:54.951Z,4.43
2019-06-10T11:18:01.427Z,4.73
2019-06-10T11:21:10.181Z,5.13
2019-06-10T11:24:32.692Z,4.77
2019-06-10T11:27:25.458Z,5.40
2019-06-10T11:30:32.425Z,4.30
2019-06-10T11:33:37.646Z,5.60
2019-06-10T11:36:42.745Z,5.00
2019-06-10T11:39:56.483Z,5.50
2019-06-10T11:43:01.764Z,4.83
2019-06-10T11:46:07.981Z,4.27
2019-06-10T11:49:13.431Z,5.27
2019-06-10T11:52:18.742Z,4.40
2019-06-10T11:55:23.933Z,3.90
2019-06-10T11:58:29.560Z,3.83
2019-06-10T12:01:34.852Z,4.90
2019-06-10T12:04:48.494Z,4.93
2019-06-10T12:08:01.654Z,3.97
2019-06-10T12:11:05.438Z,3.93
2019-06-10T12:14:15.855Z,4.80
2019-06-10T12:17:41.074Z,5.47
2019-06-10T12:20:33.263Z,5.10
2019-06-10T12:23:43.242Z,4.50
2019-06-10T12:26:47.692Z,5.20
2019-06-10T12:29:55.090Z,3.70
2019-06-10T12:33:02.828Z,3.47
2019-06-10T12:36:07.575Z,3.60
2019-06-10T12:39:17.188Z,3.90
2019-06-10T12:42:22.436Z,6.97
2019-06-10T12:45:27.955Z,4.53
2019-06-10T12:48:34.326Z,4.60
2019-06-10T12:51:39.766Z,3.03
2019-06-10T12:54:44.919Z,3.67
2019-06-10T12:57:52.160Z,3.20
2019-06-10T13:00:57.502Z,3.83
2019-06-10T13:04:07.340Z,3.80
2019-06-10T13:07:12.565Z,3.90
2019-06-10T13:10:34.555Z,4.03
2019-06-10T13:13:39.698Z,4.17
2019-06-10T13:16:44.881Z,4.10
2019-06-10T13:19:49.962Z,3.77
2019-06-10T13:22:56.187Z,3.50
2019-06-10T13:26:07.206Z,3.70
2019-06-10T13:29:10.218Z,4.13
2019-06-10T13:32:15.222Z,4.63
2019-06-10T13:35:22.846Z,4.10
2019-06-10T13:38:27.610Z,4.40
2019-06-10T13:41:33.412Z,4.07
2019-06-10T13:44:38.678Z,4.43
2019-06-10T13:47:43.975Z,4.40
2019-06-10T13:50:49.194Z,4.33
2019-06-10T13:53:54.386Z,3.80
2019-06-10T13:56:59.502Z,4.80
2019-06-10T14:00:07.641Z,3.50
2019-06-10T14:03:16.003Z,4.50
2019-06-10T14:06:37.427Z,3.97
2019-06-10T14:09:25.867Z,3.67
2019-06-10T14:12:32.376Z,3.80
2019-06-10T14:15:37.867Z,4.20
2019-06-10T14:18:43.142Z,3.50
2019-06-10T14:21:48.225Z,4.00
2019-06-10T14:24:53.974Z,3.57
2019-06-10T14:27:59.232Z,3.83
2019-06-10T14:31:15.505Z,4.17
2019-06-10T14:34:16.260Z,4.37
2019-06-10T14:37:32.241Z,4.00
2019-06-10T14:40:25.467Z,3.90
2019-06-10T14:43:33.037Z,4.97
2019-06-10T14:46:37.418Z,4.47
2019-06-10T14:49:42.672Z,3.80
2019-06-10T14:52:47.815Z,3.23
2019-06-10T14:55:53.567Z,3.30
2019-06-10T14:58:58.846Z,4.10
2019-06-10T15:02:05.630Z,3.60
2019-06-10T15:05:11.278Z,4.47
2019-06-10T15:08:17.360Z,3.93
2019-06-10T15:11:23.388Z,4.33
2019-06-10T15:14:29.313Z,3.67
2019-06-10T15:17:34.528Z,4.70
2019-06-10T15:20:42.635Z,4.10
2019-06-10T15:23:46.563Z,4.53
2019-06-10T15:27:07.918Z,4.90
2019-06-10T15:29:58.641Z,4.27
2019-06-10T15:33:03.790Z,4.20
2019-06-10T15:36:09.119Z,3.60
2019-06-10T15:39:19.548Z,3.43
2019-06-10T15:42:23.156Z,4.23
2019-06-10T15:45:28.378Z,4.10
2019-06-10T15:48:33.524Z,4.30
2019-06-10T15:51:43.529Z,7.00
2019-06-10T15:54:48.519Z,5.77
2019-06-10T15:57:54.286Z,4.37
2019-06-10T16:01:02.562Z,5.73
2019-06-10T16:04:07.083Z,4.60
2019-06-10T16:07:14.645Z,5.03
2019-06-10T16:10:22.683Z,5.23
2019-06-10T16:13:26.230Z,6.13
2019-06-10T16:16:32.502Z,5.70
2019-06-10T16:19:37.883Z,5.87
2019-06-10T16:22:43.041Z,6.30
2019-06-10T16:25:48.218Z,5.33
2019-06-10T16:28:53.339Z,5.10
2019-06-10T16:31:58.579Z,7.30
2019-06-10T16:35:04.053Z,6.20
2019-06-10T16:38:09.389Z,5.80
2019-06-10T16:41:15.313Z,6.53
2019-06-10T16:44:23.264Z,6.90
2019-06-10T16:47:27.457Z,7.10
2019-06-10T16:50:33.972Z,6.80
2019-06-10T16:53:39.367Z,6.60
2019-06-10T16:56:44.405Z,6.20
2019-06-10T16:59:51.967Z,5.93
2019-06-10T17:02:56.354Z,6.27
2019-06-10T17:06:02.516Z,5.90
2019-06-10T17:09:08.460Z,5.57
2019-06-10T17:12:13.521Z,6.50
2019-06-10T17:15:19.038Z,7.00
2019-06-10T17:18:26.429Z,6.23
2019-06-10T17:21:34.404Z,7.07
2019-06-10T17:24:37.993Z,7.20
2019-06-10T17:27:43.369Z,6.70
2019-06-10T17:30:48.712Z,7.50
2019-06-10T17:33:53.907Z,6.67
2019-06-10T17:36:59.388Z,7.80
2019-06-10T17:40:05.594Z,7.47
2019-06-10T17:43:10.758Z,7.30
2019-06-10T17:46:18.548Z,7.87
2019-06-10T17:49:25.558Z,7.90
2019-06-10T17:52:32.827Z,8.57
2019-06-10T17:55:37.403Z,8.40
2019-06-10T17:58:51.557Z,7.60
2019-06-10T18:01:49.162Z,7.53
2019-06-10T18:04:54.191Z,7.97
2019-06-10T18:07:59.290Z,7.40
2019-06-10T18:11:04.440Z,7.20
2019-06-10T18:14:12.041Z,7.20
2019-06-10T18:17:16.273Z,7.40
2019-06-10T18:20:22.478Z,7.37
2019-06-10T18:23:28.467Z,8.20
2019-06-10T18:26:37.265Z,9.00
2019-06-10T18:29:42.481Z,9.27
2019-06-10T18:32:47.070Z,7.97
2019-06-10T18:35:53.259Z,9.57
2019-06-10T18:39:02.995Z,10.40
2019-06-10T18:42:08.329Z,8.07
2019-06-10T18:45:15.038Z,8.30
2019-06-10T18:48:20.070Z,9.00
2019-06-10T18:51:25.105Z,8.70
2019-06-10T18:54:32.806Z,8.50
2019-06-10T18:57:38.071Z,7.70
2019-06-10T19:00:56.918Z,8.40
2019-06-10T19:03:50.315Z,7.87
2019-06-10T19:06:55.369Z,8.13
2019-06-10T19:10:02.319Z,8.83
2019-06-10T19:13:07.134Z,9.20
2019-06-10T19:16:12.935Z,9.00
2019-06-10T19:19:18.689Z,9.37
2019-06-10T19:22:23.805Z,9.67
2019-06-10T19:25:30.109Z,9.50
2019-06-10T19:28:37.521Z,8.87
2019-06-10T19:31:46.035Z,9.40
2019-06-10T19:34:49.299Z,8.97
2019-06-10T19:37:54.451Z,9.30
2019-06-10T19:40:59.623Z,11.00
2019-06-10T19:44:04.818Z,9.93
2019-06-10T19:47:10.027Z,8.27
2019-06-10T19:50:18.327Z,10.30
2019-06-10T19:53:23.445Z,9.30
2019-06-10T19:56:28.614Z,8.90
2019-06-10T19:59:51.102Z,9.87
2019-06-10T20:02:44.033Z,9.90
2019-06-10T20:05:47.619Z,9.77
2019-06-10T20:08:52.812Z,9.73
2019-06-10T20:11:57.783Z,9.67
2019-06-10T20:15:02.906Z,10.67
2019-06-10T20:18:08.104Z,12.00
2019-06-10T20:21:13.273Z,11.40
2019-06-10T20:24:18.406Z,11.20
2019-06-10T20:27:23.479Z,12.70
2019-06-10T20:30:29.356Z,10.97
2019-06-10T20:33:38.672Z,12.03
2019-06-10T20:36:45.301Z,12.00
2019-06-10T20:39:50.596Z,12.53
2019-06-10T20:42:55.694Z,11.03
2019-06-10T20:46:02.918Z,11.30
2019-06-10T20:49:07.533Z,10.57
2019-06-10T20:52:14.893Z,12.80
2019-06-10T20:55:19.410Z,11.77
2019-06-10T20:58:24.477Z,12.67
2019-06-10T21:01:29.634Z,13.10
2019-06-10T21:04:34.671Z,13.53
2019-06-10T21:07:41.715Z,13.20
2019-06-10T21:10:48.448Z,11.93
2019-06-10T21:13:55.662Z,12.23
2019-06-10T21:17:02.619Z,13.47
2019-06-10T21:20:07.121Z,12.70
2019-06-10T21:23:16.294Z,14.00
2019-06-10T21:26:24.371Z,12.20
2019-06-10T21:29:29.381Z,13.57
2019-06-10T21:32:34.454Z,13.43
2019-06-10T21:35:44.097Z,12.73
2019-06-10T21:38:48.147Z,14.60
2019-06-10T21:41:54.649Z,20.20
2019-06-10T21:45:07.475Z,13.83
2019-06-10T21:48:12.534Z,14.57
2019-06-10T21:51:17.546Z,13.83
2019-06-10T21:54:22.611Z,15.03
2019-06-10T21:57:27.766Z,13.87
2019-06-10T22:00:55.732Z,12.50
2019-06-10T22:03:58.761Z,12.40
2019-06-10T22:06:58.622Z,11.60
2019-06-10T22:10:03.740Z,12.90
2019-06-10T22:13:08.828Z,12.93
2019-06-10T22:16:13.929Z,13.70
2019-06-10T22:19:19.006Z,13.70
2019-06-10T22:22:26.732Z,14.30
2019-06-10T22:25:32.817Z,13.47
2019-06-10T22:28:38.085Z,13.67
2019-06-10T22:31:43.120Z,13.03
2019-06-10T22:34:53.634Z,12.50
2019-06-10T22:37:58.902Z,14.33
2019-06-10T22:41:03.929Z,15.50
2019-06-10T22:44:08.893Z,14.57
2019-06-10T22:47:14.021Z,14.37
2019-06-10T22:50:19.345Z,14.17
2019-06-10T22:53:30.386Z,14.50
2019-06-10T22:56:35.419Z,14.83
2019-06-10T22:59:42.419Z,15.60
2019-06-10T23:02:47.812Z,17.40
2019-06-10T23:05:54.147Z,16.37
2019-06-10T23:08:59.443Z,16.50
2019-06-10T23:12:04.558Z,16.20
2019-06-10T23:15:13.046Z,17.60
2019-06-10T23:18:18.272Z,16.20
2019-06-10T23:21:23.305Z,16.93
2019-06-10T23:24:28.269Z,15.67
2019-06-10T23:27:33.342Z,15.33
2019-06-10T23:30:38.289Z,17.90
2019-06-10T23:33:43.617Z,16.50
2019-06-10T23:36:50.388Z,16.93
2019-06-10T23:39:56.839Z,17.20
2019-06-10T23:43:03.871Z,15.20
2019-06-10T23:46:08.795Z,16.40
2019-06-10T23:49:13.825Z,17.00
2019-06-10T23:52:18.938Z,16.50
2019-06-10T23:55:23.910Z,15.77
2019-06-10T23:58:28.910Z,16.30
